Terminal Aerodrome Forecast
Issued by NWS Corpus Christi, TX

Home | Current Version | Previous Version | Text Only | Print | Product List | Glossary On
Versions: 1 2 3 4 5 6 7 8 9 10 11 12 13 14 15 16 17 18 19 20 21 22 23 24 25 26 27 28 29 30 31 32 33 34 35
000
FTUS44 KCRP 250007 AAA
TAFCRP
TAF AMD
KCRP 250007Z 2500/2524 15013KT 4SM HZ SCT009 BKN014
      TEMPO 2505/2509 -TSRA SCT007 BKN015CB
     FM250900 VRB05KT 6SM BR SCT005 BKN012
     FM251500 VRB06KT P6SM SCT010 BKN018
     FM251800 15009KT P6SM SCT015 BKN035=

USA.gov is the U.S. government's official web portal to all federal, state and local government web resources and services.